Impacts TAF Board
For situational awareness. Not to be used for flight planning purposes.
IDs:

KGEG - Spokane Intl, WA, US

Issued at 0601 UTC 08 May 2021
Updated at 0634 UTC 08 May 2021
Potential Impact None Slight Moderate High
Time0553Z 08/07Z 08/08Z 08/09Z 08/10Z 08/11Z 08/12Z 08/13Z 08/14Z 08/15Z 08/16Z 08/17Z 08/18Z 08/19Z>>
Type OBS PRVL
  [TEMP]  
PRVL
  [TEMP]  
PRVL PRVL PRVL PRVL PRVL PRVL PRVL PRVL PRVL PRVL PRVL
VIS 10 >6 >6 >6 >6 >6 >6 >6 >6 >6 >6 >6 >6 >6
CIG 60 --
  [50]  
--
  [50]  
-- -- -- -- -- -- -- -- -- -- --
Cover OVC FEW
  [OVC]  
FEW
  [OVC]  
FEW FEW FEW FEW FEW FEW SCT SCT SCT SCT SCT
FltCat VFR VFR
  [VFR]  
VFR
  [VFR]  
VFR VFR VFR VFR VFR VFR VFR VFR VFR VFR VFR
WX -- --
  [-SHRA]  
--
  [-SHRA]  
-- -- -- -- -- -- -- -- -- -- --
WDir 240 240
[340]
240
[340]
240 240 240 240 240 240 220 220 220 220 240
WSpd 13 11
  [10]  
11
  [10]  
11 11 11 11 11 11 11 11 11 11 14
WGst -- --
  [20]  
--
  [20]  
-- -- -- -- -- -- 19 19 19 19 21
Raw TAF
KGEG 080601Z 0806/0906 24011KT P6SM FEW060
  TEMPO 0806/0809 34010G20KT -SHRA SCT030 OVC050
  FM081500 22011G19KT P6SM SCT100
  FM081900 24014G21KT P6SM FEW060 SCT100
  FM090300 22007KT P6SM FEW100


Raw METAR
KGEG 080553Z 24013KT 10SM BKN060 OVC080 08/M03 A3007 RMK AO2 SLP185 60000 T00831033 10133 20083 51009
KGEG 080453Z 25008KT 10SM BKN055 OVC085 08/M03 A3007 RMK AO2 SLP187 T00831028
KGEG 080353Z 23013KT 10SM BKN040 BKN095 08/M03 A3006 RMK AO2 SLP185 T00831028

METAR Board
Radar Display
Forecast Discussion
For situational awareness. Not to be used for flight planning purposes.